sensor_id;sensor_type;location;lat;lon;timestamp;P1;durP1;ratioP1;P2;durP2;ratioP2
32082;SDS011;18597;48.328;7.932;2023-08-06T00:00:27;8.23;;;2.27;;
32082;SDS011;18597;48.328;7.932;2023-08-06T00:02:53;2.27;;;2.17;;
32082;SDS011;18597;48.328;7.932;2023-08-06T00:05:18;3.63;;;2.10;;
32082;SDS011;18597;48.328;7.932;2023-08-06T00:07:46;2.40;;;2.30;;
32082;SDS011;18597;48.328;7.932;2023-08-06T00:10:13;3.60;;;2.03;;
32082;SDS011;18597;48.328;7.932;2023-08-06T00:12:39;2.90;;;2.80;;
32082;SDS011;18597;48.328;7.932;2023-08-06T00:15:05;3.57;;;2.80;;
32082;SDS011;18597;48.328;7.932;2023-08-06T00:17:31;2.33;;;2.23;;
32082;SDS011;18597;48.328;7.932;2023-08-06T00:19:58;2.87;;;2.70;;
32082;SDS011;18597;48.328;7.932;2023-08-06T00:22:29;3.67;;;2.43;;
32082;SDS011;18597;48.328;7.932;2023-08-06T00:25:00;7.33;;;2.40;;
32082;SDS011;18597;48.328;7.932;2023-08-06T00:27:26;2.80;;;2.60;;
32082;SDS011;18597;48.328;7.932;2023-08-06T00:29:52;3.00;;;2.67;;
32082;SDS011;18597;48.328;7.932;2023-08-06T00:32:18;2.93;;;2.47;;
32082;SDS011;18597;48.328;7.932;2023-08-06T00:34:44;2.70;;;2.50;;
32082;SDS011;18597;48.328;7.932;2023-08-06T00:37:09;2.27;;;2.07;;
32082;SDS011;18597;48.328;7.932;2023-08-06T00:39:35;2.63;;;2.40;;
32082;SDS011;18597;48.328;7.932;2023-08-06T00:42:01;2.40;;;2.30;;
32082;SDS011;18597;48.328;7.932;2023-08-06T00:44:27;2.60;;;2.40;;
32082;SDS011;18597;48.328;7.932;2023-08-06T00:46:53;3.27;;;2.83;;
32082;SDS011;18597;48.328;7.932;2023-08-06T00:49:19;4.47;;;2.13;;
32082;SDS011;18597;48.328;7.932;2023-08-06T00:51:46;2.50;;;2.07;;
32082;SDS011;18597;48.328;7.932;2023-08-06T00:54:12;2.03;;;1.80;;
32082;SDS011;18597;48.328;7.932;2023-08-06T00:56:39;4.23;;;1.83;;
32082;SDS011;18597;48.328;7.932;2023-08-06T00:59:06;2.70;;;1.97;;
32082;SDS011;18597;48.328;7.932;2023-08-06T01:01:32;2.73;;;1.90;;
32082;SDS011;18597;48.328;7.932;2023-08-06T01:03:58;3.23;;;2.90;;
32082;SDS011;18597;48.328;7.932;2023-08-06T01:06:31;3.13;;;2.53;;
32082;SDS011;18597;48.328;7.932;2023-08-06T01:09:31;4.43;;;2.20;;
32082;SDS011;18597;48.328;7.932;2023-08-06T01:12:34;2.37;;;2.27;;
32082;SDS011;18597;48.328;7.932;2023-08-06T01:15:42;2.10;;;2.00;;
32082;SDS011;18597;48.328;7.932;2023-08-06T01:18:12;6.33;;;2.47;;
32082;SDS011;18597;48.328;7.932;2023-08-06T01:20:38;2.67;;;2.40;;
32082;SDS011;18597;48.328;7.932;2023-08-06T01:23:04;2.40;;;2.30;;
32082;SDS011;18597;48.328;7.932;2023-08-06T01:25:33;4.70;;;2.40;;
32082;SDS011;18597;48.328;7.932;2023-08-06T01:28:07;1.93;;;1.83;;
32082;SDS011;18597;48.328;7.932;2023-08-06T01:30:47;9.83;;;3.00;;
32082;SDS011;18597;48.328;7.932;2023-08-06T01:33:16;3.83;;;2.07;;
32082;SDS011;18597;48.328;7.932;2023-08-06T01:35:46;6.73;;;2.70;;
32082;SDS011;18597;48.328;7.932;2023-08-06T01:38:15;3.83;;;2.50;;
32082;SDS011;18597;48.328;7.932;2023-08-06T01:40:41;9.23;;;2.50;;
32082;SDS011;18597;48.328;7.932;2023-08-06T01:43:07;3.73;;;2.40;;
32082;SDS011;18597;48.328;7.932;2023-08-06T01:45:32;4.10;;;2.10;;
32082;SDS011;18597;48.328;7.932;2023-08-06T01:47:59;3.90;;;2.07;;
32082;SDS011;18597;48.328;7.932;2023-08-06T01:50:24;2.83;;;2.63;;
32082;SDS011;18597;48.328;7.932;2023-08-06T01:52:50;3.00;;;2.20;;
32082;SDS011;18597;48.328;7.932;2023-08-06T01:55:16;3.90;;;3.10;;
32082;SDS011;18597;48.328;7.932;2023-08-06T01:57:43;4.97;;;2.77;;
32082;SDS011;18597;48.328;7.932;2023-08-06T02:00:10;7.00;;;3.30;;
32082;SDS011;18597;48.328;7.932;2023-08-06T02:02:36;19.10;;;4.17;;
32082;SDS011;18597;48.328;7.932;2023-08-06T02:05:02;6.47;;;3.40;;
32082;SDS011;18597;48.328;7.932;2023-08-06T02:07:29;10.33;;;4.13;;
32082;SDS011;18597;48.328;7.932;2023-08-06T02:09:54;5.50;;;3.57;;
32082;SDS011;18597;48.328;7.932;2023-08-06T02:12:20;2.53;;;2.33;;
32082;SDS011;18597;48.328;7.932;2023-08-06T02:14:46;3.60;;;3.30;;
32082;SDS011;18597;48.328;7.932;2023-08-06T02:17:12;4.23;;;3.40;;
32082;SDS011;18597;48.328;7.932;2023-08-06T02:19:37;4.70;;;3.60;;
32082;SDS011;18597;48.328;7.932;2023-08-06T02:22:03;3.67;;;3.37;;
32082;SDS011;18597;48.328;7.932;2023-08-06T02:24:29;4.17;;;2.40;;
32082;SDS011;18597;48.328;7.932;2023-08-06T02:26:55;3.70;;;2.17;;
32082;SDS011;18597;48.328;7.932;2023-08-06T02:29:21;3.00;;;2.87;;
32082;SDS011;18597;48.328;7.932;2023-08-06T02:31:47;6.23;;;2.90;;
32082;SDS011;18597;48.328;7.932;2023-08-06T02:34:13;12.10;;;3.80;;
32082;SDS011;18597;48.328;7.932;2023-08-06T02:36:38;3.37;;;3.00;;
32082;SDS011;18597;48.328;7.932;2023-08-06T02:39:04;3.97;;;2.90;;
32082;SDS011;18597;48.328;7.932;2023-08-06T02:41:30;4.33;;;4.00;;
32082;SDS011;18597;48.328;7.932;2023-08-06T02:43:56;5.57;;;2.93;;
32082;SDS011;18597;48.328;7.932;2023-08-06T02:46:21;7.03;;;2.77;;
32082;SDS011;18597;48.328;7.932;2023-08-06T02:48:47;3.57;;;2.53;;
32082;SDS011;18597;48.328;7.932;2023-08-06T02:51:13;3.70;;;2.37;;
32082;SDS011;18597;48.328;7.932;2023-08-06T02:53:39;5.77;;;2.80;;
32082;SDS011;18597;48.328;7.932;2023-08-06T02:56:04;5.43;;;3.00;;
32082;SDS011;18597;48.328;7.932;2023-08-06T02:58:30;4.80;;;3.20;;
32082;SDS011;18597;48.328;7.932;2023-08-06T03:01:03;5.63;;;3.63;;
32082;SDS011;18597;48.328;7.932;2023-08-06T03:03:32;3.60;;;2.57;;
32082;SDS011;18597;48.328;7.932;2023-08-06T03:05:59;3.90;;;3.33;;
32082;SDS011;18597;48.328;7.932;2023-08-06T03:08:25;6.10;;;3.43;;
32082;SDS011;18597;48.328;7.932;2023-08-06T03:10:51;6.77;;;3.20;;
32082;SDS011;18597;48.328;7.932;2023-08-06T03:13:17;9.13;;;2.57;;
32082;SDS011;18597;48.328;7.932;2023-08-06T03:15:51;6.80;;;3.00;;
32082;SDS011;18597;48.328;7.932;2023-08-06T03:18:19;5.87;;;3.13;;
32082;SDS011;18597;48.328;7.932;2023-08-06T03:20:46;5.53;;;3.33;;
32082;SDS011;18597;48.328;7.932;2023-08-06T03:23:12;11.73;;;3.60;;
32082;SDS011;18597;48.328;7.932;2023-08-06T03:25:37;6.23;;;2.57;;
32082;SDS011;18597;48.328;7.932;2023-08-06T03:28:03;5.90;;;2.43;;
32082;SDS011;18597;48.328;7.932;2023-08-06T03:30:29;3.53;;;2.67;;
32082;SDS011;18597;48.328;7.932;2023-08-06T03:32:55;5.13;;;2.10;;
32082;SDS011;18597;48.328;7.932;2023-08-06T03:35:21;8.67;;;3.50;;
32082;SDS011;18597;48.328;7.932;2023-08-06T03:37:46;6.80;;;3.30;;
32082;SDS011;18597;48.328;7.932;2023-08-06T03:40:13;3.60;;;3.27;;
32082;SDS011;18597;48.328;7.932;2023-08-06T03:42:39;6.20;;;2.83;;
32082;SDS011;18597;48.328;7.932;2023-08-06T03:45:05;3.90;;;2.97;;
32082;SDS011;18597;48.328;7.932;2023-08-06T03:47:31;2.40;;;2.20;;
32082;SDS011;18597;48.328;7.932;2023-08-06T03:49:57;6.53;;;2.73;;
32082;SDS011;18597;48.328;7.932;2023-08-06T03:52:23;3.37;;;3.10;;
32082;SDS011;18597;48.328;7.932;2023-08-06T03:54:49;4.00;;;2.37;;
32082;SDS011;18597;48.328;7.932;2023-08-06T03:57:15;7.83;;;3.13;;
32082;SDS011;18597;48.328;7.932;2023-08-06T03:59:40;4.90;;;2.60;;
32082;SDS011;18597;48.328;7.932;2023-08-06T04:02:06;4.75;;;2.08;;
32082;SDS011;18597;48.328;7.932;2023-08-06T04:04:32;2.17;;;1.47;;
32082;SDS011;18597;48.328;7.932;2023-08-06T04:06:58;5.83;;;1.83;;
32082;SDS011;18597;48.328;7.932;2023-08-06T04:09:24;4.40;;;1.53;;
32082;SDS011;18597;48.328;7.932;2023-08-06T04:11:49;4.20;;;1.83;;
32082;SDS011;18597;48.328;7.932;2023-08-06T04:14:15;6.07;;;1.70;;
32082;SDS011;18597;48.328;7.932;2023-08-06T04:16:41;2.20;;;1.70;;
32082;SDS011;18597;48.328;7.932;2023-08-06T04:19:07;3.90;;;1.50;;
32082;SDS011;18597;48.328;7.932;2023-08-06T04:21:32;6.10;;;2.30;;
32082;SDS011;18597;48.328;7.932;2023-08-06T04:23:59;1.53;;;1.43;;
32082;SDS011;18597;48.328;7.932;2023-08-06T04:26:25;2.37;;;2.00;;
32082;SDS011;18597;48.328;7.932;2023-08-06T04:28:51;6.43;;;1.60;;
32082;SDS011;18597;48.328;7.932;2023-08-06T04:31:16;3.00;;;2.10;;
32082;SDS011;18597;48.328;7.932;2023-08-06T04:33:42;2.23;;;1.50;;
32082;SDS011;18597;48.328;7.932;2023-08-06T04:36:08;1.27;;;1.10;;
32082;SDS011;18597;48.328;7.932;2023-08-06T04:38:34;3.47;;;1.37;;
32082;SDS011;18597;48.328;7.932;2023-08-06T04:41:01;2.57;;;1.20;;
32082;SDS011;18597;48.328;7.932;2023-08-06T04:43:28;4.43;;;1.00;;
32082;SDS011;18597;48.328;7.932;2023-08-06T04:45:54;5.20;;;1.40;;
32082;SDS011;18597;48.328;7.932;2023-08-06T04:48:21;2.23;;;1.13;;
32082;SDS011;18597;48.328;7.932;2023-08-06T04:50:48;3.33;;;1.23;;
32082;SDS011;18597;48.328;7.932;2023-08-06T04:53:15;1.80;;;0.97;;
32082;SDS011;18597;48.328;7.932;2023-08-06T04:55:41;1.70;;;1.40;;
32082;SDS011;18597;48.328;7.932;2023-08-06T04:58:08;1.10;;;1.10;;
32082;SDS011;18597;48.328;7.932;2023-08-06T05:00:38;4.80;;;1.40;;
32082;SDS011;18597;48.328;7.932;2023-08-06T05:03:05;3.80;;;1.10;;
32082;SDS011;18597;48.328;7.932;2023-08-06T05:05:31;3.80;;;1.30;;
32082;SDS011;18597;48.328;7.932;2023-08-06T05:07:57;1.53;;;1.00;;
32082;SDS011;18597;48.328;7.932;2023-08-06T05:10:24;3.03;;;1.00;;
32082;SDS011;18597;48.328;7.932;2023-08-06T05:12:51;0.90;;;0.90;;
32082;SDS011;18597;48.328;7.932;2023-08-06T05:15:17;7.90;;;2.00;;
32082;SDS011;18597;48.328;7.932;2023-08-06T05:17:43;2.57;;;0.90;;
32082;SDS011;18597;48.328;7.932;2023-08-06T05:20:09;1.37;;;1.20;;
32082;SDS011;18597;48.328;7.932;2023-08-06T05:22:36;1.53;;;1.00;;
32082;SDS011;18597;48.328;7.932;2023-08-06T05:25:02;3.73;;;1.00;;
32082;SDS011;18597;48.328;7.932;2023-08-06T05:27:27;2.97;;;1.17;;
32082;SDS011;18597;48.328;7.932;2023-08-06T05:29:55;1.27;;;1.27;;
32082;SDS011;18597;48.328;7.932;2023-08-06T05:32:21;1.07;;;1.00;;
32082;SDS011;18597;48.328;7.932;2023-08-06T05:34:47;5.87;;;1.50;;
32082;SDS011;18597;48.328;7.932;2023-08-06T05:37:13;3.53;;;1.50;;
32082;SDS011;18597;48.328;7.932;2023-08-06T05:39:39;1.17;;;1.17;;
32082;SDS011;18597;48.328;7.932;2023-08-06T05:42:05;2.10;;;1.53;;
32082;SDS011;18597;48.328;7.932;2023-08-06T05:44:32;2.53;;;1.13;;
32082;SDS011;18597;48.328;7.932;2023-08-06T05:46:57;2.57;;;2.33;;
32082;SDS011;18597;48.328;7.932;2023-08-06T05:49:23;4.13;;;1.03;;
32082;SDS011;18597;48.328;7.932;2023-08-06T05:51:49;0.80;;;0.80;;
32082;SDS011;18597;48.328;7.932;2023-08-06T05:54:18;1.33;;;1.23;;
32082;SDS011;18597;48.328;7.932;2023-08-06T05:56:44;1.23;;;1.13;;
32082;SDS011;18597;48.328;7.932;2023-08-06T05:59:10;3.00;;;0.90;;
32082;SDS011;18597;48.328;7.932;2023-08-06T06:01:35;0.77;;;0.70;;
32082;SDS011;18597;48.328;7.932;2023-08-06T06:04:01;3.53;;;0.60;;
32082;SDS011;18597;48.328;7.932;2023-08-06T06:06:27;6.83;;;1.07;;
32082;SDS011;18597;48.328;7.932;2023-08-06T06:08:53;4.63;;;1.43;;
32082;SDS011;18597;48.328;7.932;2023-08-06T06:11:19;1.73;;;0.83;;
32082;SDS011;18597;48.328;7.932;2023-08-06T06:13:47;1.57;;;0.80;;
32082;SDS011;18597;48.328;7.932;2023-08-06T06:16:16;1.27;;;0.90;;
32082;SDS011;18597;48.328;7.932;2023-08-06T06:18:42;3.87;;;0.90;;
32082;SDS011;18597;48.328;7.932;2023-08-06T06:21:07;2.60;;;1.03;;
32082;SDS011;18597;48.328;7.932;2023-08-06T06:23:33;2.77;;;1.17;;
32082;SDS011;18597;48.328;7.932;2023-08-06T06:25:59;5.93;;;1.13;;
32082;SDS011;18597;48.328;7.932;2023-08-06T06:28:25;4.33;;;1.30;;
32082;SDS011;18597;48.328;7.932;2023-08-06T06:30:51;6.30;;;1.67;;
32082;SDS011;18597;48.328;7.932;2023-08-06T06:33:17;4.87;;;2.30;;
32082;SDS011;18597;48.328;7.932;2023-08-06T06:35:42;2.43;;;1.10;;
32082;SDS011;18597;48.328;7.932;2023-08-06T06:38:08;2.03;;;1.37;;
32082;SDS011;18597;48.328;7.932;2023-08-06T06:40:34;2.80;;;1.10;;
32082;SDS011;18597;48.328;7.932;2023-08-06T06:43:00;1.30;;;1.10;;
32082;SDS011;18597;48.328;7.932;2023-08-06T06:45:26;3.53;;;0.90;;
32082;SDS011;18597;48.328;7.932;2023-08-06T06:47:51;2.33;;;0.67;;
32082;SDS011;18597;48.328;7.932;2023-08-06T06:50:17;3.90;;;0.83;;
32082;SDS011;18597;48.328;7.932;2023-08-06T06:52:43;1.20;;;1.10;;
32082;SDS011;18597;48.328;7.932;2023-08-06T06:55:09;10.63;;;1.03;;
32082;SDS011;18597;48.328;7.932;2023-08-06T06:57:34;5.13;;;0.70;;
32082;SDS011;18597;48.328;7.932;2023-08-06T07:00:00;1.47;;;0.90;;
32082;SDS011;18597;48.328;7.932;2023-08-06T07:02:26;2.10;;;1.00;;
32082;SDS011;18597;48.328;7.932;2023-08-06T07:04:52;4.50;;;1.73;;
32082;SDS011;18597;48.328;7.932;2023-08-06T07:07:17;8.07;;;0.93;;
32082;SDS011;18597;48.328;7.932;2023-08-06T07:09:44;3.90;;;1.23;;
32082;SDS011;18597;48.328;7.932;2023-08-06T07:12:10;3.33;;;1.20;;
32082;SDS011;18597;48.328;7.932;2023-08-06T07:14:35;1.60;;;0.50;;
32082;SDS011;18597;48.328;7.932;2023-08-06T07:17:01;2.03;;;0.93;;
32082;SDS011;18597;48.328;7.932;2023-08-06T07:19:27;1.80;;;0.90;;
32082;SDS011;18597;48.328;7.932;2023-08-06T07:21:53;1.70;;;0.63;;
32082;SDS011;18597;48.328;7.932;2023-08-06T07:24:20;2.20;;;1.10;;
32082;SDS011;18597;48.328;7.932;2023-08-06T07:26:46;5.40;;;2.13;;
32082;SDS011;18597;48.328;7.932;2023-08-06T07:29:12;1.20;;;1.10;;
32082;SDS011;18597;48.328;7.932;2023-08-06T07:31:38;2.50;;;1.37;;
32082;SDS011;18597;48.328;7.932;2023-08-06T07:34:03;3.80;;;1.17;;
32082;SDS011;18597;48.328;7.932;2023-08-06T07:36:29;1.10;;;1.10;;
32082;SDS011;18597;48.328;7.932;2023-08-06T07:38:55;1.83;;;0.77;;
32082;SDS011;18597;48.328;7.932;2023-08-06T07:41:22;3.30;;;0.90;;
32082;SDS011;18597;48.328;7.932;2023-08-06T07:43:48;2.83;;;0.73;;
32082;SDS011;18597;48.328;7.932;2023-08-06T07:46:14;2.20;;;0.80;;
32082;SDS011;18597;48.328;7.932;2023-08-06T07:48:40;3.80;;;0.80;;
32082;SDS011;18597;48.328;7.932;2023-08-06T07:51:06;3.13;;;0.70;;
32082;SDS011;18597;48.328;7.932;2023-08-06T07:53:32;4.40;;;0.70;;
32082;SDS011;18597;48.328;7.932;2023-08-06T07:55:58;3.30;;;0.90;;
32082;SDS011;18597;48.328;7.932;2023-08-06T07:58:24;1.47;;;1.10;;
32082;SDS011;18597;48.328;7.932;2023-08-06T08:00:50;0.70;;;0.70;;
32082;SDS011;18597;48.328;7.932;2023-08-06T08:03:16;0.53;;;0.53;;
32082;SDS011;18597;48.328;7.932;2023-08-06T08:05:43;1.10;;;1.00;;
32082;SDS011;18597;48.328;7.932;2023-08-06T08:08:09;0.47;;;0.47;;
32082;SDS011;18597;48.328;7.932;2023-08-06T08:10:35;5.40;;;1.17;;
32082;SDS011;18597;48.328;7.932;2023-08-06T08:13:02;1.30;;;1.20;;
32082;SDS011;18597;48.328;7.932;2023-08-06T08:15:29;1.67;;;1.30;;
32082;SDS011;18597;48.328;7.932;2023-08-06T08:17:56;1.00;;;0.90;;
32082;SDS011;18597;48.328;7.932;2023-08-06T08:20:22;1.70;;;1.70;;
32082;SDS011;18597;48.328;7.932;2023-08-06T08:22:48;1.77;;;0.97;;
32082;SDS011;18597;48.328;7.932;2023-08-06T08:25:15;1.43;;;0.60;;
32082;SDS011;18597;48.328;7.932;2023-08-06T08:27:41;1.43;;;0.90;;
32082;SDS011;18597;48.328;7.932;2023-08-06T08:30:07;1.70;;;0.77;;
32082;SDS011;18597;48.328;7.932;2023-08-06T08:32:33;0.83;;;0.83;;
32082;SDS011;18597;48.328;7.932;2023-08-06T08:34:59;0.60;;;0.60;;
32082;SDS011;18597;48.328;7.932;2023-08-06T08:37:25;2.97;;;0.80;;
32082;SDS011;18597;48.328;7.932;2023-08-06T08:39:51;0.60;;;0.60;;
32082;SDS011;18597;48.328;7.932;2023-08-06T08:42:17;1.70;;;0.87;;
32082;SDS011;18597;48.328;7.932;2023-08-06T08:44:43;0.30;;;0.30;;
32082;SDS011;18597;48.328;7.932;2023-08-06T08:47:10;1.37;;;1.00;;
32082;SDS011;18597;48.328;7.932;2023-08-06T08:49:37;0.80;;;0.80;;
32082;SDS011;18597;48.328;7.932;2023-08-06T08:52:06;0.60;;;0.60;;
32082;SDS011;18597;48.328;7.932;2023-08-06T08:54:35;0.60;;;0.30;;
32082;SDS011;18597;48.328;7.932;2023-08-06T08:57:04;0.43;;;0.43;;
32082;SDS011;18597;48.328;7.932;2023-08-06T08:59:30;1.07;;;0.97;;
32082;SDS011;18597;48.328;7.932;2023-08-06T09:01:58;1.57;;;0.73;;
32082;SDS011;18597;48.328;7.932;2023-08-06T09:04:27;0.70;;;0.70;;
32082;SDS011;18597;48.328;7.932;2023-08-06T09:06:56;0.70;;;0.70;;
32082;SDS011;18597;48.328;7.932;2023-08-06T09:09:26;1.70;;;0.40;;
32082;SDS011;18597;48.328;7.932;2023-08-06T09:12:00;0.50;;;0.50;;
32082;SDS011;18597;48.328;7.932;2023-08-06T09:14:27;1.60;;;0.27;;
32082;SDS011;18597;48.328;7.932;2023-08-06T09:16:53;0.27;;;0.27;;
32082;SDS011;18597;48.328;7.932;2023-08-06T09:19:20;2.30;;;0.40;;
32082;SDS011;18597;48.328;7.932;2023-08-06T09:21:46;0.30;;;0.30;;
32082;SDS011;18597;48.328;7.932;2023-08-06T09:24:13;0.40;;;0.23;;
32082;SDS011;18597;48.328;7.932;2023-08-06T09:26:40;0.53;;;0.30;;
32082;SDS011;18597;48.328;7.932;2023-08-06T09:29:09;0.20;;;0.20;;
32082;SDS011;18597;48.328;7.932;2023-08-06T09:31:40;5.87;;;0.40;;
32082;SDS011;18597;48.328;7.932;2023-08-06T09:34:13;4.73;;;0.40;;
32082;SDS011;18597;48.328;7.932;2023-08-06T09:36:43;0.20;;;0.20;;
32082;SDS011;18597;48.328;7.932;2023-08-06T09:39:14;2.60;;;0.37;;
32082;SDS011;18597;48.328;7.932;2023-08-06T09:41:43;0.30;;;0.30;;
32082;SDS011;18597;48.328;7.932;2023-08-06T09:44:17;0.40;;;0.40;;
32082;SDS011;18597;48.328;7.932;2023-08-06T09:46:49;0.50;;;0.50;;
32082;SDS011;18597;48.328;7.932;2023-08-06T09:49:19;0.30;;;0.30;;
32082;SDS011;18597;48.328;7.932;2023-08-06T09:51:47;0.27;;;0.27;;
32082;SDS011;18597;48.328;7.932;2023-08-06T09:54:16;0.63;;;0.40;;
32082;SDS011;18597;48.328;7.932;2023-08-06T09:56:44;0.53;;;0.37;;
32082;SDS011;18597;48.328;7.932;2023-08-06T09:59:09;0.40;;;0.30;;
32082;SDS011;18597;48.328;7.932;2023-08-06T10:01:36;0.50;;;0.20;;
32082;SDS011;18597;48.328;7.932;2023-08-06T10:04:03;1.03;;;0.30;;
32082;SDS011;18597;48.328;7.932;2023-08-06T10:06:33;0.40;;;0.40;;
32082;SDS011;18597;48.328;7.932;2023-08-06T10:09:01;0.77;;;0.30;;
32082;SDS011;18597;48.328;7.932;2023-08-06T10:11:28;0.87;;;0.87;;
32082;SDS011;18597;48.328;7.932;2023-08-06T10:13:57;0.40;;;0.20;;
32082;SDS011;18597;48.328;7.932;2023-08-06T10:16:31;1.50;;;0.30;;
32082;SDS011;18597;48.328;7.932;2023-08-06T10:18:59;7.00;;;1.57;;
32082;SDS011;18597;48.328;7.932;2023-08-06T10:21:28;0.40;;;0.20;;
32082;SDS011;18597;48.328;7.932;2023-08-06T10:23:56;0.40;;;0.40;;
32082;SDS011;18597;48.328;7.932;2023-08-06T10:26:29;0.27;;;0.27;;
32082;SDS011;18597;48.328;7.932;2023-08-06T10:28:55;0.30;;;0.30;;
32082;SDS011;18597;48.328;7.932;2023-08-06T10:31:53;0.30;;;0.30;;
32082;SDS011;18597;48.328;7.932;2023-08-06T10:34:25;0.20;;;0.20;;
32082;SDS011;18597;48.328;7.932;2023-08-06T10:37:20;0.60;;;0.60;;
32082;SDS011;18597;48.328;7.932;2023-08-06T10:39:51;0.20;;;0.20;;
32082;SDS011;18597;48.328;7.932;2023-08-06T10:42:32;0.30;;;0.20;;
32082;SDS011;18597;48.328;7.932;2023-08-06T10:45:14;0.67;;;0.30;;
32082;SDS011;18597;48.328;7.932;2023-08-06T10:47:43;0.30;;;0.30;;
32082;SDS011;18597;48.328;7.932;2023-08-06T10:50:13;0.27;;;0.27;;
32082;SDS011;18597;48.328;7.932;2023-08-06T10:52:43;0.50;;;0.50;;
32082;SDS011;18597;48.328;7.932;2023-08-06T10:55:10;0.57;;;0.57;;
32082;SDS011;18597;48.328;7.932;2023-08-06T10:57:36;1.77;;;0.70;;
32082;SDS011;18597;48.328;7.932;2023-08-06T11:00:05;0.63;;;0.63;;
32082;SDS011;18597;48.328;7.932;2023-08-06T11:02:34;0.80;;;0.80;;
32082;SDS011;18597;48.328;7.932;2023-08-06T11:05:05;2.80;;;2.70;;
32082;SDS011;18597;48.328;7.932;2023-08-06T11:07:32;0.87;;;0.87;;
32082;SDS011;18597;48.328;7.932;2023-08-06T11:10:06;2.00;;;1.37;;
32082;SDS011;18597;48.328;7.932;2023-08-06T11:12:34;1.27;;;1.13;;
32082;SDS011;18597;48.328;7.932;2023-08-06T11:15:01;1.33;;;1.23;;
32082;SDS011;18597;48.328;7.932;2023-08-06T11:17:29;0.90;;;0.90;;
32082;SDS011;18597;48.328;7.932;2023-08-06T11:20:00;1.27;;;1.17;;
32082;SDS011;18597;48.328;7.932;2023-08-06T11:22:29;1.20;;;1.20;;
32082;SDS011;18597;48.328;7.932;2023-08-06T11:24:55;0.63;;;0.63;;
32082;SDS011;18597;48.328;7.932;2023-08-06T11:27:21;2.53;;;0.80;;
32082;SDS011;18597;48.328;7.932;2023-08-06T11:29:48;0.97;;;0.97;;
32082;SDS011;18597;48.328;7.932;2023-08-06T11:32:13;2.87;;;0.97;;
32082;SDS011;18597;48.328;7.932;2023-08-06T11:34:39;3.03;;;1.63;;
32082;SDS011;18597;48.328;7.932;2023-08-06T11:37:06;0.93;;;0.93;;
32082;SDS011;18597;48.328;7.932;2023-08-06T11:39:34;1.70;;;0.77;;
32082;SDS011;18597;48.328;7.932;2023-08-06T11:42:02;0.70;;;0.70;;
32082;SDS011;18597;48.328;7.932;2023-08-06T11:44:31;0.50;;;0.50;;
32082;SDS011;18597;48.328;7.932;2023-08-06T11:47:03;4.23;;;0.70;;
32082;SDS011;18597;48.328;7.932;2023-08-06T11:50:02;0.50;;;0.50;;
32082;SDS011;18597;48.328;7.932;2023-08-06T11:52:17;0.37;;;0.37;;
32082;SDS011;18597;48.328;7.932;2023-08-06T11:54:46;0.50;;;0.50;;
32082;SDS011;18597;48.328;7.932;2023-08-06T11:57:24;2.20;;;0.57;;
32082;SDS011;18597;48.328;7.932;2023-08-06T11:59:50;0.40;;;0.37;;
32082;SDS011;18597;48.328;7.932;2023-08-06T12:02:15;0.47;;;0.47;;
32082;SDS011;18597;48.328;7.932;2023-08-06T12:04:58;0.83;;;0.60;;
32082;SDS011;18597;48.328;7.932;2023-08-06T12:07:30;0.67;;;0.67;;
32082;SDS011;18597;48.328;7.932;2023-08-06T12:09:58;0.57;;;0.57;;
32082;SDS011;18597;48.328;7.932;2023-08-06T12:12:24;0.57;;;0.57;;
32082;SDS011;18597;48.328;7.932;2023-08-06T12:14:50;0.37;;;0.37;;
32082;SDS011;18597;48.328;7.932;2023-08-06T12:17:16;1.10;;;0.37;;
32082;SDS011;18597;48.328;7.932;2023-08-06T12:19:44;1.53;;;0.30;;
32082;SDS011;18597;48.328;7.932;2023-08-06T12:22:11;0.57;;;0.57;;
32082;SDS011;18597;48.328;7.932;2023-08-06T12:24:38;1.63;;;0.40;;
32082;SDS011;18597;48.328;7.932;2023-08-06T12:27:06;0.40;;;0.40;;
32082;SDS011;18597;48.328;7.932;2023-08-06T12:29:32;1.03;;;0.90;;
32082;SDS011;18597;48.328;7.932;2023-08-06T12:31:57;0.90;;;0.87;;
32082;SDS011;18597;48.328;7.932;2023-08-06T12:34:23;0.77;;;0.77;;
32082;SDS011;18597;48.328;7.932;2023-08-06T12:36:49;1.07;;;0.67;;
32082;SDS011;18597;48.328;7.932;2023-08-06T12:39:15;0.20;;;0.20;;
32082;SDS011;18597;48.328;7.932;2023-08-06T12:41:41;0.63;;;0.63;;
32082;SDS011;18597;48.328;7.932;2023-08-06T12:44:08;3.60;;;1.37;;
32082;SDS011;18597;48.328;7.932;2023-08-06T12:46:34;4.13;;;0.43;;
32082;SDS011;18597;48.328;7.932;2023-08-06T12:49:00;0.70;;;0.70;;
32082;SDS011;18597;48.328;7.932;2023-08-06T12:51:26;0.97;;;0.97;;
32082;SDS011;18597;48.328;7.932;2023-08-06T12:53:51;0.40;;;0.40;;
32082;SDS011;18597;48.328;7.932;2023-08-06T12:56:17;0.53;;;0.30;;
32082;SDS011;18597;48.328;7.932;2023-08-06T12:58:43;1.00;;;1.00;;
32082;SDS011;18597;48.328;7.932;2023-08-06T13:01:09;0.50;;;0.50;;
32082;SDS011;18597;48.328;7.932;2023-08-06T13:03:35;1.50;;;0.50;;
32082;SDS011;18597;48.328;7.932;2023-08-06T13:06:01;0.70;;;0.40;;
32082;SDS011;18597;48.328;7.932;2023-08-06T13:08:27;0.40;;;0.40;;
32082;SDS011;18597;48.328;7.932;2023-08-06T13:10:52;1.77;;;0.90;;
32082;SDS011;18597;48.328;7.932;2023-08-06T13:13:18;0.87;;;0.87;;
32082;SDS011;18597;48.328;7.932;2023-08-06T13:15:44;0.47;;;0.47;;
32082;SDS011;18597;48.328;7.932;2023-08-06T13:18:09;0.77;;;0.47;;
32082;SDS011;18597;48.328;7.932;2023-08-06T13:20:37;0.57;;;0.57;;
32082;SDS011;18597;48.328;7.932;2023-08-06T13:23:05;0.50;;;0.50;;
32082;SDS011;18597;48.328;7.932;2023-08-06T13:25:31;0.77;;;0.77;;
32082;SDS011;18597;48.328;7.932;2023-08-06T13:28:01;0.80;;;0.80;;
32082;SDS011;18597;48.328;7.932;2023-08-06T13:30:28;0.60;;;0.60;;
32082;SDS011;18597;48.328;7.932;2023-08-06T13:32:54;0.73;;;0.73;;
32082;SDS011;18597;48.328;7.932;2023-08-06T13:35:21;0.50;;;0.50;;
32082;SDS011;18597;48.328;7.932;2023-08-06T13:37:48;7.03;;;0.87;;
32082;SDS011;18597;48.328;7.932;2023-08-06T13:40:14;0.70;;;0.70;;
32082;SDS011;18597;48.328;7.932;2023-08-06T13:42:40;4.20;;;0.80;;
32082;SDS011;18597;48.328;7.932;2023-08-06T13:45:06;0.40;;;0.40;;
32082;SDS011;18597;48.328;7.932;2023-08-06T13:47:33;0.73;;;0.57;;
32082;SDS011;18597;48.328;7.932;2023-08-06T13:49:59;0.57;;;0.50;;
32082;SDS011;18597;48.328;7.932;2023-08-06T13:52:25;3.60;;;0.50;;
32082;SDS011;18597;48.328;7.932;2023-08-06T13:54:52;1.17;;;0.50;;
32082;SDS011;18597;48.328;7.932;2023-08-06T13:57:18;0.73;;;0.73;;
32082;SDS011;18597;48.328;7.932;2023-08-06T13:59:44;1.57;;;0.90;;
32082;SDS011;18597;48.328;7.932;2023-08-06T14:02:10;1.60;;;0.30;;
32082;SDS011;18597;48.328;7.932;2023-08-06T14:04:36;0.60;;;0.60;;
32082;SDS011;18597;48.328;7.932;2023-08-06T14:07:03;0.30;;;0.30;;
32082;SDS011;18597;48.328;7.932;2023-08-06T14:09:29;0.57;;;0.50;;
32082;SDS011;18597;48.328;7.932;2023-08-06T14:11:55;2.53;;;0.67;;
32082;SDS011;18597;48.328;7.932;2023-08-06T14:14:21;0.83;;;0.80;;
32082;SDS011;18597;48.328;7.932;2023-08-06T14:16:51;1.53;;;0.47;;
32082;SDS011;18597;48.328;7.932;2023-08-06T14:19:19;0.77;;;0.77;;
32082;SDS011;18597;48.328;7.932;2023-08-06T14:21:45;1.17;;;0.70;;
32082;SDS011;18597;48.328;7.932;2023-08-06T14:24:11;0.90;;;0.80;;
32082;SDS011;18597;48.328;7.932;2023-08-06T14:26:37;4.20;;;1.07;;
32082;SDS011;18597;48.328;7.932;2023-08-06T14:29:03;1.03;;;0.60;;
32082;SDS011;18597;48.328;7.932;2023-08-06T14:31:29;1.23;;;1.23;;
32082;SDS011;18597;48.328;7.932;2023-08-06T14:33:54;0.50;;;0.50;;
32082;SDS011;18597;48.328;7.932;2023-08-06T14:36:20;1.20;;;1.20;;
32082;SDS011;18597;48.328;7.932;2023-08-06T14:38:46;0.83;;;0.83;;
32082;SDS011;18597;48.328;7.932;2023-08-06T14:41:12;0.50;;;0.50;;
32082;SDS011;18597;48.328;7.932;2023-08-06T14:43:38;3.90;;;0.80;;
32082;SDS011;18597;48.328;7.932;2023-08-06T14:46:04;0.83;;;0.83;;
32082;SDS011;18597;48.328;7.932;2023-08-06T14:48:30;1.70;;;0.87;;